Time;durP1;ratioP1;P1;durP2;ratioP2;P2;SDS_P1;SDS_P2;PMS_P1;PMS_P2;Temp;Humidity;BMP_temperature;BMP_pressure;BME280_temperature;BME280_humidity;BME280_pressure;Samples;Min_cycle;Max_cycle;Signal;HPM_P1;HPM_P2
2021/12/25 00:00:44;;;;;;;7.32;3.38;;;1.10;99.90;;;;;;4984760;28;21716;-72
2021/12/25 00:03:10;;;;;;;9.05;3.60;;;1.10;99.90;;;;;;4987095;28;20637;-72
2021/12/25 00:05:35;;;;;;;6.85;3.20;;;1.10;99.90;;;;;;4986296;28;20159;-72
2021/12/25 00:08:01;;;;;;;7.38;3.20;;;1.00;99.90;;;;;;4985215;28;20026;-72
2021/12/25 00:10:30;;;;;;;9.70;2.80;;;1.00;99.90;;;;;;4984631;28;22442;-72
2021/12/25 00:12:56;;;;;;;7.07;2.63;;;1.00;99.90;;;;;;4986812;28;20058;-72
2021/12/25 00:15:22;;;;;;;7.07;2.70;;;1.00;99.90;;;;;;4985492;28;20042;-72
2021/12/25 00:17:48;;;;;;;7.90;2.38;;;1.00;99.90;;;;;;4984615;28;21114;-72
2021/12/25 00:20:14;;;;;;;7.97;2.60;;;1.00;99.90;;;;;;4971138;28;20053;-72
2021/12/25 00:22:40;;;;;;;4.65;2.50;;;0.90;99.90;;;;;;4969888;28;20046;-72
2021/12/25 00:25:06;;;;;;;8.25;2.40;;;0.90;99.90;;;;;;4985582;28;20458;-72
2021/12/25 00:27:50;;;;;;;8.27;2.30;;;0.90;99.90;;;;;;4986405;28;20081;-72
2021/12/25 00:30:33;;;;;;;5.45;2.33;;;0.80;99.90;;;;;;4998378;28;20038;-72
2021/12/25 00:33:18;;;;;;;8.80;2.40;;;0.80;99.90;;;;;;4987335;28;20090;-72
2021/12/25 00:35:43;;;;;;;;;;;0.90;99.90;;;;;;4985659;28;20038;-72
2021/12/25 00:38:09;;;;;;;9.73;2.10;;;0.80;99.90;;;;;;4985933;28;19987;-72
2021/12/25 00:40:34;;;;;;;7.25;2.33;;;0.80;99.90;;;;;;4969001;28;20402;-72
2021/12/25 00:43:00;;;;;;;5.50;2.38;;;0.80;99.90;;;;;;4984711;28;20083;-72
2021/12/25 00:45:26;;;;;;;9.07;2.20;;;0.80;99.90;;;;;;4985226;28;20058;-72
2021/12/25 00:47:51;;;;;;;7.63;2.40;;;0.70;99.90;;;;;;4982909;28;20501;-72
2021/12/25 00:50:17;;;;;;;7.35;2.30;;;0.70;99.90;;;;;;4984415;28;20714;-72
2021/12/25 00:52:42;;;;;;;7.20;2.08;;;0.80;99.90;;;;;;4983845;28;20406;-72
2021/12/25 00:55:09;;;;;;;6.35;2.05;;;0.70;99.90;;;;;;4983598;28;20081;-72
2021/12/25 00:57:35;;;;;;;9.20;2.63;;;0.80;99.90;;;;;;4984807;28;20049;-72
2021/12/25 01:00:09;;;;;;;5.85;1.73;;;0.80;99.90;;;;;;4984144;28;20045;-72
2021/12/25 01:02:35;;;;;;;5.43;2.05;;;0.80;99.90;;;;;;4985023;28;20060;-72
2021/12/25 01:05:01;;;;;;;6.57;1.95;;;0.70;99.90;;;;;;4982885;28;20160;-72
2021/12/25 01:07:27;;;;;;;6.85;2.10;;;0.70;99.90;;;;;;4983100;28;20494;-72
2021/12/25 01:09:53;;;;;;;7.75;1.83;;;0.60;99.90;;;;;;4984333;28;20077;-72
2021/12/25 01:12:19;;;;;;;5.32;1.63;;;0.60;99.90;;;;;;4983188;28;20074;-72
2021/12/25 01:14:51;;;;;;;8.30;2.63;;;0.60;99.90;;;;;;4983655;28;20064;-72
2021/12/25 01:22:51;;;;;;;3.97;1.70;;;0.40;99.90;;;;;;4992527;28;20069;-71
2021/12/25 01:30:47;;;;;;;2.40;1.27;;;0.40;99.90;;;;;;4984613;28;20128;-71
2021/12/25 01:33:51;;;;;;;5.22;1.60;;;0.30;99.90;;;;;;4984492;28;20049;-71
2021/12/25 01:47:46;;;;;;;8.23;1.00;;;0.10;99.90;;;;;;5002054;28;20030;-73
2021/12/25 01:49:57;;;;;;;5.20;1.58;;;0.00;99.90;;;;;;4970754;28;20126;-72
2021/12/25 01:52:29;;;;;;;2.47;1.23;;;0.00;99.90;;;;;;4969008;28;20128;-72
2021/12/25 01:55:02;;;;;;;4.57;1.40;;;0.00;99.90;;;;;;4965363;28;20038;-72
2021/12/25 01:57:29;;;;;;;;;;;-0.10;99.90;;;;;;4971606;28;20041;-72
2021/12/25 01:59:59;;;;;;;2.63;1.20;;;-0.20;99.90;;;;;;4966819;28;19977;-72
2021/12/25 02:02:25;;;;;;;6.80;1.50;;;-0.10;99.90;;;;;;4985362;28;20058;-72
2021/12/25 02:04:52;;;;;;;3.05;1.25;;;-0.30;99.90;;;;;;4967327;28;20042;-72
2021/12/25 02:07:19;;;;;;;6.28;1.50;;;-0.20;99.90;;;;;;4968248;28;20080;-72
2021/12/25 02:09:45;;;;;;;6.63;1.48;;;-0.20;99.90;;;;;;4968382;28;20042;-72
2021/12/25 02:12:11;;;;;;;5.18;1.40;;;-0.20;99.90;;;;;;4965479;28;20053;-71
2021/12/25 02:14:41;;;;;;;7.95;1.52;;;-0.30;99.90;;;;;;4984729;28;20057;-72
2021/12/25 02:20:13;;;;;;;5.60;1.50;;;-0.40;99.90;;;;;;4952858;28;20057;-71
2021/12/25 02:22:40;;;;;;;7.30;1.73;;;-0.50;99.90;;;;;;4967199;28;20092;-71
2021/12/25 02:25:06;;;;;;;8.63;1.40;;;-0.50;99.90;;;;;;4983412;28;20088;-71
2021/12/25 02:27:32;;;;;;;8.02;1.70;;;-0.50;99.90;;;;;;4968331;28;20046;-71
2021/12/25 02:29:58;;;;;;;8.23;1.60;;;-0.60;99.90;;;;;;4962160;28;20042;-71
2021/12/25 02:32:23;;;;;;;4.07;1.70;;;-0.60;99.90;;;;;;4968091;28;20076;-72
2021/12/25 02:34:49;;;;;;;5.55;1.58;;;-0.60;99.90;;;;;;4967231;28;20046;-72
2021/12/25 02:37:15;;;;;;;4.05;1.13;;;-0.60;99.90;;;;;;4967710;28;20125;-72
2021/12/25 02:39:42;;;;;;;5.05;1.30;;;-0.70;99.90;;;;;;4967434;28;20037;-72
2021/12/25 02:42:08;;;;;;;5.20;1.40;;;-0.70;99.90;;;;;;4966455;28;20510;-72
2021/12/25 02:44:34;;;;;;;6.05;1.42;;;-0.70;99.90;;;;;;4983288;28;20042;-72
2021/12/25 02:47:09;;;;;;;2.15;1.23;;;-0.80;99.90;;;;;;4967380;28;20037;-72
2021/12/25 02:49:35;;;;;;;3.65;1.15;;;-0.80;99.90;;;;;;4965653;28;20038;-72
2021/12/25 02:52:01;;;;;;;6.25;2.00;;;-0.80;99.90;;;;;;4982623;28;20042;-72
2021/12/25 02:54:26;;;;;;;2.25;0.90;;;-0.80;99.90;;;;;;4965378;28;20038;-73
2021/12/25 02:56:52;;;;;;;2.65;1.25;;;-0.80;99.90;;;;;;4967643;28;20081;-72
2021/12/25 02:59:18;;;;;;;3.78;1.20;;;-0.80;99.90;;;;;;4970344;28;20093;-73
2021/12/25 03:01:45;;;;;;;3.67;1.27;;;-0.90;99.90;;;;;;4955257;28;20038;-73
2021/12/25 03:04:14;;;;;;;4.57;1.30;;;-1.00;99.90;;;;;;4971845;28;20030;-73
2021/12/25 03:06:43;;;;;;;5.85;1.45;;;-1.00;99.90;;;;;;4957554;28;20035;-73
2021/12/25 03:09:08;;;;;;;4.45;1.30;;;-1.00;99.90;;;;;;4985156;28;20053;-73
2021/12/25 03:11:34;;;;;;;6.97;1.50;;;-1.00;99.90;;;;;;4972853;28;20188;-73
2021/12/25 03:14:30;;;;;;;3.10;1.20;;;-1.10;99.90;;;;;;4969715;28;20049;-73
2021/12/25 03:16:56;;;;;;;3.33;1.33;;;-1.00;99.90;;;;;;4989296;28;20038;-73
2021/12/25 03:19:28;;;;;;;3.50;1.38;;;-1.10;99.90;;;;;;4967962;28;20057;-73
2021/12/25 03:21:54;;;;;;;;;;;-1.10;99.90;;;;;;4971570;28;20039;-73
2021/12/25 03:24:20;;;;;;;3.40;1.00;;;-1.10;99.90;;;;;;4968013;28;19929;-73
2021/12/25 03:26:45;;;;;;;4.78;1.35;;;-1.20;99.90;;;;;;4967092;28;20057;-73
2021/12/25 03:29:11;;;;;;;4.05;1.23;;;-1.30;99.90;;;;;;4970679;28;20038;-73
2021/12/25 03:31:37;;;;;;;3.97;1.35;;;-1.30;99.90;;;;;;4987354;28;20046;-73
2021/12/25 03:34:02;;;;;;;3.80;1.65;;;-1.30;99.90;;;;;;4952877;28;20038;-73
2021/12/25 03:36:28;;;;;;;3.55;1.15;;;-1.40;99.90;;;;;;4956625;28;20043;-72
2021/12/25 03:38:54;;;;;;;4.60;1.15;;;-1.30;99.90;;;;;;4968323;28;20055;-73
2021/12/25 03:41:20;;;;;;;3.53;1.20;;;-1.40;99.90;;;;;;4987672;28;20085;-72
2021/12/25 03:43:46;;;;;;;2.60;1.25;;;-1.40;99.90;;;;;;4969719;28;20038;-73
2021/12/25 03:46:15;;;;;;;10.02;1.30;;;-1.50;99.90;;;;;;4971632;28;20038;-73
2021/12/25 03:59:09;;;;;;;4.57;1.05;;;-1.60;99.90;;;;;;4968944;28;20045;-72
2021/12/25 04:06:45;;;;;;;3.03;1.10;;;-1.70;99.90;;;;;;4971151;28;20092;-71
2021/12/25 04:09:22;;;;;;;3.33;0.98;;;-1.70;99.90;;;;;;4970352;28;20038;-71
2021/12/25 04:11:47;;;;;;;2.72;0.90;;;-1.80;99.90;;;;;;4985140;28;20052;-71
2021/12/25 04:14:13;;;;;;;8.32;1.10;;;-1.80;99.90;;;;;;4985357;28;20046;-70
2021/12/25 04:16:39;;;;;;;3.33;1.30;;;-1.80;99.90;;;;;;4984475;28;20038;-71
2021/12/25 04:19:05;;;;;;;1.50;1.10;;;-1.80;99.90;;;;;;4983921;28;20038;-71
2021/12/25 04:21:30;;;;;;;4.55;1.00;;;-1.80;99.90;;;;;;4971852;28;20038;-70
2021/12/25 04:23:56;;;;;;;3.95;1.10;;;-1.90;99.90;;;;;;4982253;28;20031;-70
2021/12/25 04:26:24;;;;;;;2.53;0.90;;;-1.90;99.90;;;;;;4982965;28;20113;-70
2021/12/25 04:31:32;;;;;;;2.30;0.90;;;-1.90;99.90;;;;;;4965656;28;20556;-70
2021/12/25 05:03:56;;;;;;;2.05;1.00;;;-2.20;99.90;;;;;;4982601;28;20055;-70
2021/12/25 05:06:23;;;;;;;1.92;1.05;;;-2.20;99.90;;;;;;4972554;28;20045;-70
2021/12/25 05:08:54;;;;;;;1.70;0.80;;;-2.20;99.90;;;;;;4969387;28;20040;-70
2021/12/25 05:11:20;;;;;;;1.35;0.75;;;-2.20;99.90;;;;;;4985763;28;20070;-70
2021/12/25 05:13:49;;;;;;;4.00;1.63;;;-2.20;99.90;;;;;;4970292;28;20046;-70
2021/12/25 05:16:14;;;;;;;3.20;1.05;;;-2.20;99.90;;;;;;4968913;28;20482;-71
2021/12/25 05:18:40;;;;;;;2.03;1.13;;;-2.20;99.90;;;;;;4970005;28;20065;-70
2021/12/25 05:21:07;;;;;;;3.15;1.08;;;-2.30;99.90;;;;;;4986757;28;20093;-70
2021/12/25 05:23:34;;;;;;;2.78;1.05;;;-2.30;99.90;;;;;;4952790;28;20081;-70
2021/12/25 05:25:59;;;;;;;3.28;0.90;;;-2.30;99.90;;;;;;4968001;28;20042;-70
2021/12/25 05:28:26;;;;;;;6.28;1.05;;;-2.40;99.90;;;;;;4969165;28;20524;-70
2021/12/25 05:30:54;;;;;;;2.30;1.00;;;-2.30;99.90;;;;;;4970518;28;20039;-70
2021/12/25 05:33:21;;;;;;;2.88;1.25;;;-2.30;99.90;;;;;;4965658;28;20045;-70
2021/12/25 05:35:47;;;;;;;5.43;1.00;;;-2.30;99.90;;;;;;4967042;28;20093;-70
2021/12/25 05:38:14;;;;;;;2.53;0.90;;;-2.40;99.90;;;;;;4953652;28;20038;-70
2021/12/25 05:40:45;;;;;;;4.38;1.02;;;-2.40;99.90;;;;;;4985415;28;20437;-70
2021/12/25 05:43:12;;;;;;;2.15;0.90;;;-2.30;99.90;;;;;;4966510;28;20492;-72
2021/12/25 05:45:37;;;;;;;3.10;1.25;;;-2.40;99.90;;;;;;4970117;28;20138;-72
2021/12/25 05:48:04;;;;;;;2.15;1.30;;;-2.40;99.90;;;;;;4966533;28;20121;-71
2021/12/25 05:50:30;;;;;;;1.27;0.90;;;-2.40;99.90;;;;;;4984539;28;20053;-72
2021/12/25 05:52:56;;;;;;;3.55;0.90;;;-2.40;99.90;;;;;;4968024;28;20038;-72
2021/12/25 05:55:24;;;;;;;2.58;1.17;;;-2.40;99.90;;;;;;4982469;28;20034;-71
2021/12/25 05:57:49;;;;;;;1.55;1.13;;;-2.50;99.90;;;;;;4966926;28;20405;-71
2021/12/25 06:00:16;;;;;;;3.45;1.00;;;-2.50;99.90;;;;;;4966748;28;20049;-71
2021/12/25 06:02:43;;;;;;;2.00;1.10;;;-2.50;99.90;;;;;;4965292;28;20093;-71
2021/12/25 06:05:09;;;;;;;1.38;0.80;;;-2.50;99.90;;;;;;4968094;28;20042;-72
2021/12/25 06:07:35;;;;;;;1.77;0.90;;;-2.50;99.90;;;;;;4956887;28;20042;-71
2021/12/25 06:10:03;;;;;;;1.40;0.90;;;-2.50;99.90;;;;;;4972104;28;20122;-71
2021/12/25 06:12:28;;;;;;;1.73;0.82;;;-2.60;99.90;;;;;;4989818;28;20041;-71
2021/12/25 06:14:59;;;;;;;1.25;0.80;;;-2.60;99.90;;;;;;4941013;28;20125;-71
2021/12/25 06:17:26;;;;;;;3.03;1.08;;;-2.60;99.90;;;;;;4986262;28;20034;-71
2021/12/25 06:19:51;;;;;;;1.98;1.00;;;-2.60;99.90;;;;;;4970229;28;20162;-71
2021/12/25 06:22:18;;;;;;;2.05;0.90;;;-2.60;99.90;;;;;;4988472;28;20042;-71
2021/12/25 06:24:49;;;;;;;2.35;1.05;;;-2.60;99.90;;;;;;4988928;28;20042;-71
2021/12/25 06:27:16;;;;;;;3.88;0.80;;;-2.60;99.90;;;;;;4986798;28;20049;-71
2021/12/25 06:29:42;;;;;;;1.58;1.00;;;-2.60;99.90;;;;;;4971976;28;20128;-71
2021/12/25 06:32:08;;;;;;;0.60;0.60;;;-2.70;99.90;;;;;;4987762;28;20121;-72
2021/12/25 06:34:34;;;;;;;3.63;0.93;;;-2.70;99.90;;;;;;4972500;28;20048;-71
2021/12/25 06:37:00;;;;;;;3.53;0.90;;;-2.70;99.90;;;;;;4989262;28;20035;-71
2021/12/25 06:39:27;;;;;;;2.97;0.98;;;-2.70;99.90;;;;;;4956044;28;20065;-71
2021/12/25 06:41:52;;;;;;;0.80;0.77;;;-2.70;99.90;;;;;;4956002;28;20038;-71
2021/12/25 06:44:20;;;;;;;3.20;0.80;;;-2.80;99.90;;;;;;4956378;28;20073;-71
2021/12/25 06:46:46;;;;;;;0.60;0.60;;;-2.80;99.90;;;;;;4986929;28;20041;-71
2021/12/25 06:49:12;;;;;;;2.33;0.80;;;-2.70;99.90;;;;;;4969230;28;20150;-71
2021/12/25 06:51:37;;;;;;;3.20;0.88;;;-2.80;99.90;;;;;;4988529;28;20066;-71
2021/12/25 06:54:04;;;;;;;2.20;0.80;;;-2.80;99.90;;;;;;4956323;28;20034;-71
2021/12/25 06:56:30;;;;;;;1.75;1.10;;;-2.80;99.90;;;;;;4977042;28;20046;-71
2021/12/25 06:58:56;;;;;;;1.90;0.65;;;-2.90;99.90;;;;;;4991158;28;20517;-71
2021/12/25 07:01:22;;;;;;;1.45;1.00;;;-2.90;99.90;;;;;;4960827;28;20046;-71
2021/12/25 07:03:48;;;;;;;0.93;0.73;;;-2.90;99.90;;;;;;4969625;28;20045;-71
2021/12/25 07:06:13;;;;;;;1.65;0.70;;;-2.90;99.90;;;;;;4970222;28;20030;-71
2021/12/25 07:08:39;;;;;;;1.48;0.65;;;-2.90;99.90;;;;;;4967957;28;20043;-72
2021/12/25 07:11:05;;;;;;;3.22;0.70;;;-3.00;99.90;;;;;;4972777;28;20065;-71
2021/12/25 07:13:30;;;;;;;0.52;0.50;;;-3.00;99.90;;;;;;4970413;28;20110;-71
2021/12/25 07:15:56;;;;;;;7.65;1.02;;;-3.10;99.90;;;;;;4970829;28;20477;-71
2021/12/25 07:18:22;;;;;;;4.60;0.70;;;-3.10;99.90;;;;;;4969637;28;20046;-71
2021/12/25 07:20:48;;;;;;;2.25;0.70;;;-3.10;99.90;;;;;;4970322;28;20113;-72
2021/12/25 07:23:15;;;;;;;0.73;0.65;;;-3.10;99.90;;;;;;4985488;28;20069;-72
2021/12/25 07:25:41;;;;;;;2.25;0.70;;;-3.10;99.90;;;;;;4970656;28;20043;-72
2021/12/25 07:28:07;;;;;;;2.13;0.60;;;-3.10;99.90;;;;;;4988293;28;20383;-71
2021/12/25 07:30:33;;;;;;;0.60;0.60;;;-3.20;99.90;;;;;;4953082;28;20104;-71
2021/12/25 07:32:59;;;;;;;0.63;0.50;;;-3.20;99.90;;;;;;4968345;28;20445;-71
2021/12/25 07:35:26;;;;;;;2.13;0.70;;;-3.20;99.90;;;;;;4968797;28;20038;-71
2021/12/25 07:37:51;;;;;;;0.57;0.43;;;-3.20;99.90;;;;;;4986214;28;20047;-71
2021/12/25 07:40:17;;;;;;;1.85;0.75;;;-3.20;99.90;;;;;;4969173;28;20046;-71
2021/12/25 07:42:43;;;;;;;2.17;0.63;;;-3.20;99.90;;;;;;4972150;28;20062;-71
2021/12/25 07:45:10;;;;;;;1.95;0.70;;;-3.20;99.90;;;;;;4971101;28;20136;-71
2021/12/25 07:47:40;;;;;;;0.77;0.60;;;-3.30;99.90;;;;;;4971743;28;20049;-71
2021/12/25 07:50:09;;;;;;;0.95;0.60;;;-3.30;99.90;;;;;;4985985;28;20045;-71
2021/12/25 07:52:35;;;;;;;3.25;0.70;;;-3.30;99.90;;;;;;4970899;28;20041;-71
2021/12/25 07:55:01;;;;;;;1.75;0.68;;;-3.30;99.90;;;;;;4971761;28;20265;-71
2021/12/25 07:57:26;;;;;;;1.77;0.63;;;-3.30;99.90;;;;;;4972476;28;20057;-71
2021/12/25 07:59:52;;;;;;;2.45;0.60;;;-3.40;99.90;;;;;;4990920;28;20410;-71
2021/12/25 08:02:18;;;;;;;1.05;0.57;;;-3.30;99.90;;;;;;4971056;28;20031;-70
2021/12/25 08:04:43;;;;;;;1.73;0.75;;;-3.30;99.90;;;;;;4970207;28;20499;-70
2021/12/25 08:07:10;;;;;;;4.13;0.80;;;-3.30;99.90;;;;;;4969944;28;20034;-70
2021/12/25 08:09:37;;;;;;;1.70;0.70;;;-3.30;99.90;;;;;;4982977;28;20038;-71
2021/12/25 08:12:03;;;;;;;2.03;0.68;;;-3.30;99.90;;;;;;4968464;28;20542;-71
2021/12/25 08:14:30;;;;;;;2.53;0.75;;;-3.30;99.90;;;;;;4967407;28;20100;-71
2021/12/25 08:16:59;;;;;;;2.30;0.70;;;-3.30;99.90;;;;;;4967831;28;20084;-71
2021/12/25 08:19:25;;;;;;;2.55;0.70;;;-3.30;99.90;;;;;;4983668;28;20050;-71
2021/12/25 08:21:51;;;;;;;4.20;1.20;;;-3.30;99.90;;;;;;4968827;28;20042;-71
2021/12/25 08:24:18;;;;;;;4.00;1.83;;;-3.30;99.90;;;;;;4967579;28;20038;-71
2021/12/25 08:26:45;;;;;;;1.30;0.68;;;-3.30;99.90;;;;;;4967094;28;20050;-71
2021/12/25 08:29:11;;;;;;;0.63;0.50;;;-3.30;99.90;;;;;;4984671;28;20089;-71
2021/12/25 08:31:37;;;;;;;1.83;0.70;;;-3.30;99.90;;;;;;4966086;28;20050;-70
2021/12/25 08:34:03;;;;;;;1.73;0.80;;;-3.30;99.90;;;;;;4985740;28;20042;-70
2021/12/25 08:36:29;;;;;;;4.60;0.82;;;-3.30;99.90;;;;;;4985670;28;20054;-70
2021/12/25 08:38:55;;;;;;;2.42;0.70;;;-3.30;99.90;;;;;;4968045;28;20050;-70
2021/12/25 08:41:26;;;;;;;1.45;0.70;;;-3.30;99.90;;;;;;4968047;28;20042;-70
2021/12/25 08:43:57;;;;;;;2.75;0.85;;;-3.30;99.90;;;;;;4968978;28;20053;-70
2021/12/25 08:46:43;;;;;;;1.92;0.70;;;-3.30;99.90;;;;;;4985373;28;20042;-70
2021/12/25 08:49:14;;;;;;;1.98;0.80;;;-3.30;99.90;;;;;;4980449;28;20088;-70
2021/12/25 08:51:40;;;;;;;1.92;0.68;;;-3.30;99.90;;;;;;4967805;28;20042;-70
2021/12/25 08:54:06;;;;;;;2.75;0.90;;;-3.30;99.90;;;;;;4982605;28;20120;-70
2021/12/25 08:56:32;;;;;;;0.98;0.70;;;-3.30;99.90;;;;;;4969320;28;20034;-70
2021/12/25 08:59:00;;;;;;;2.45;0.77;;;-3.20;99.90;;;;;;4982713;28;20038;-70
2021/12/25 09:01:26;;;;;;;4.70;0.90;;;-3.30;99.90;;;;;;4985361;28;20043;-70
2021/12/25 09:03:51;;;;;;;2.33;0.80;;;-3.20;99.90;;;;;;4968367;28;20129;-70
2021/12/25 09:06:17;;;;;;;3.75;0.90;;;-3.20;99.90;;;;;;4967619;28;20125;-70
2021/12/25 09:08:43;;;;;;;1.75;1.02;;;-3.20;99.90;;;;;;4970390;28;20038;-70
2021/12/25 09:11:09;;;;;;;6.32;0.88;;;-3.20;99.90;;;;;;4966119;28;20046;-70
2021/12/25 09:13:34;;;;;;;2.28;0.80;;;-3.10;99.90;;;;;;4968918;28;20478;-70
2021/12/25 09:16:00;;;;;;;1.90;0.90;;;-3.10;99.90;;;;;;4984066;28;20041;-69
2021/12/25 09:18:26;;;;;;;6.10;0.95;;;-3.10;99.90;;;;;;4968902;28;20034;-70
2021/12/25 09:20:51;;;;;;;1.88;0.85;;;-3.10;99.90;;;;;;4975686;28;20046;-70
2021/12/25 09:23:17;;;;;;;2.92;0.90;;;-3.10;99.90;;;;;;4972101;28;20100;-70
2021/12/25 09:25:43;;;;;;;4.65;0.98;;;-3.00;99.90;;;;;;4974390;28;20038;-70
2021/12/25 09:28:09;;;;;;;2.30;0.88;;;-3.00;99.90;;;;;;4967924;28;20050;-70
2021/12/25 09:30:36;;;;;;;2.65;1.02;;;-3.00;99.90;;;;;;4965005;28;20065;-70
2021/12/25 09:33:02;;;;;;;4.07;1.00;;;-2.90;99.90;;;;;;4975199;28;20070;-70
2021/12/25 09:35:28;;;;;;;3.45;0.90;;;-2.90;99.90;;;;;;4965400;28;20042;-71
2021/12/25 09:37:55;;;;;;;5.85;1.30;;;-2.90;99.90;;;;;;4986942;28;20045;-71
2021/12/25 09:40:21;;;;;;;3.60;0.82;;;-2.80;99.90;;;;;;4962364;28;20080;-71
2021/12/25 09:42:47;;;;;;;4.22;0.90;;;-2.80;99.90;;;;;;4970163;28;20046;-71
2021/12/25 09:45:13;;;;;;;5.18;0.90;;;-2.80;99.90;;;;;;4970242;28;20034;-70
2021/12/25 09:47:39;;;;;;;3.13;0.80;;;-2.80;99.90;;;;;;4986784;28;20125;-70
2021/12/25 09:50:06;;;;;;;2.60;0.80;;;-2.70;99.90;;;;;;4979024;28;20084;-70
2021/12/25 09:52:32;;;;;;;2.97;0.80;;;-2.70;99.90;;;;;;4964966;28;20502;-70
2021/12/25 09:54:58;;;;;;;4.15;1.10;;;-2.70;99.90;;;;;;4974994;28;20072;-70
2021/12/25 09:57:23;;;;;;;2.90;0.82;;;-2.60;99.90;;;;;;4971411;28;20169;-71
2021/12/25 09:59:51;;;;;;;2.35;0.95;;;-2.60;99.90;;;;;;4987982;28;20049;-71
2021/12/25 10:02:17;;;;;;;2.42;1.00;;;-2.50;99.90;;;;;;4968228;28;20038;-71
2021/12/25 10:04:48;;;;;;;2.83;1.08;;;-2.50;99.90;;;;;;4982070;28;20152;-71
2021/12/25 10:07:17;;;;;;;5.00;1.20;;;-2.50;99.90;;;;;;4968776;28;20122;-71
2021/12/25 10:09:52;;;;;;;2.38;0.90;;;-2.50;99.90;;;;;;4976621;28;20096;-71
2021/12/25 10:12:18;;;;;;;3.30;1.00;;;-2.40;99.90;;;;;;4971243;28;20061;-71
2021/12/25 10:14:53;;;;;;;3.90;1.10;;;-2.30;99.90;;;;;;4983972;28;20047;-71
2021/12/25 10:17:28;;;;;;;3.17;0.80;;;-2.30;99.90;;;;;;4972586;28;20046;-71
2021/12/25 10:20:00;;;;;;;1.92;0.88;;;-2.20;99.90;;;;;;4971449;28;20498;-71
2021/12/25 10:22:26;;;;;;;3.80;1.60;;;-2.20;99.90;;;;;;4972901;28;20166;-71
2021/12/25 10:25:07;;;;;;;4.10;1.00;;;-2.20;99.90;;;;;;4976366;28;20121;-71
2021/12/25 10:27:33;;;;;;;1.25;0.90;;;-2.10;99.90;;;;;;4971664;28;20628;-70
2021/12/25 10:30:03;;;;;;;2.15;0.85;;;-2.00;99.90;;;;;;4989590;28;20038;-70
2021/12/25 10:32:29;;;;;;;3.10;1.00;;;-1.90;99.90;;;;;;4972119;28;20363;-71
2021/12/25 10:34:55;;;;;;;2.80;0.80;;;-1.90;99.90;;;;;;4970626;28;20049;-71
2021/12/25 10:37:22;;;;;;;3.08;1.13;;;-1.80;99.90;;;;;;4971293;28;20180;-71
2021/12/25 10:39:49;;;;;;;2.28;1.00;;;-1.80;99.90;;;;;;4956698;28;20042;-71
2021/12/25 10:42:22;;;;;;;3.20;1.20;;;-1.70;99.90;;;;;;4968826;28;20058;-71
2021/12/25 10:44:55;;;;;;;4.15;1.48;;;-1.60;99.90;;;;;;4987151;28;20047;-71
2021/12/25 10:47:21;;;;;;;;;;;-1.60;99.90;;;;;;4969902;28;20503;-71
2021/12/25 10:49:54;;;;;;;1.83;1.00;;;-1.60;99.90;;;;;;4972058;28;19924;-71
2021/12/25 10:52:21;;;;;;;;;;;-1.50;99.90;;;;;;4969608;28;20043;-71
2021/12/25 10:54:54;;;;;;;2.65;0.80;;;-1.50;99.90;;;;;;4973405;28;19917;-71
2021/12/25 10:57:30;;;;;;;2.42;0.70;;;-1.50;99.90;;;;;;4982062;28;20176;-71
2021/12/25 10:59:57;;;;;;;3.55;1.90;;;-1.40;99.10;;;;;;4968074;28;20038;-71
2021/12/25 11:02:38;;;;;;;2.85;1.05;;;-1.40;99.10;;;;;;4955738;28;20042;-71
2021/12/25 11:05:22;;;;;;;1.98;0.80;;;-1.40;99.00;;;;;;4972982;28;20049;-71
2021/12/25 11:08:07;;;;;;;2.40;0.90;;;-1.40;98.20;;;;;;4967494;28;20555;-71
2021/12/25 11:10:45;;;;;;;4.18;0.82;;;-1.30;98.10;;;;;;4964345;28;20086;-72
2021/12/25 11:13:26;;;;;;;4.45;0.95;;;-1.30;98.30;;;;;;4968518;28;20054;-71
2021/12/25 11:16:01;;;;;;;3.78;1.10;;;-1.20;98.20;;;;;;4970929;28;20043;-71
2021/12/25 11:18:27;;;;;;;5.30;0.90;;;-1.20;98.40;;;;;;4973644;28;20065;-71
2021/12/25 11:20:53;;;;;;;3.28;1.00;;;-1.20;98.20;;;;;;4983186;28;20039;-71
2021/12/25 11:23:21;;;;;;;2.50;0.85;;;-1.10;97.90;;;;;;4969546;28;20038;-72
2021/12/25 11:25:46;;;;;;;2.30;0.82;;;-1.10;98.30;;;;;;4975547;28;20372;-71
2021/12/25 11:28:18;;;;;;;2.58;0.90;;;-1.00;98.00;;;;;;4972118;28;20041;-72
2021/12/25 11:30:47;;;;;;;1.85;0.80;;;-0.90;97.20;;;;;;4988541;28;20053;-73
2021/12/25 11:33:13;;;;;;;2.63;0.93;;;-0.90;97.20;;;;;;4987687;28;20490;-72
2021/12/25 11:35:39;;;;;;;2.90;1.00;;;-0.70;96.80;;;;;;4983450;28;20108;-71
2021/12/25 11:38:08;;;;;;;3.20;0.80;;;-0.70;96.80;;;;;;4986730;28;20407;-72
2021/12/25 11:40:38;;;;;;;4.10;0.90;;;-0.60;96.70;;;;;;4965378;28;20034;-71
2021/12/25 11:43:04;;;;;;;3.35;0.90;;;-0.50;96.90;;;;;;4977521;28;20493;-72
2021/12/25 11:45:35;;;;;;;1.88;0.90;;;-0.40;96.30;;;;;;4976540;28;20035;-72
2021/12/25 11:48:12;;;;;;;4.40;0.93;;;-0.30;96.10;;;;;;4969850;28;20419;-72
2021/12/25 11:50:42;;;;;;;2.80;0.93;;;-0.20;95.00;;;;;;4988416;28;20129;-73
2021/12/25 11:53:16;;;;;;;4.78;1.77;;;-0.10;94.60;;;;;;4967094;28;20061;-72
2021/12/25 11:58:43;;;;;;;2.63;0.85;;;-0.10;93.70;;;;;;4970285;28;20077;-72
2021/12/25 12:01:27;;;;;;;5.63;1.95;;;0.00;93.50;;;;;;4969223;28;20042;-71
2021/12/25 12:03:56;;;;;;;2.30;0.90;;;0.10;93.50;;;;;;4970324;28;20093;-72
2021/12/25 12:06:43;;;;;;;3.85;0.88;;;0.20;93.90;;;;;;4972537;28;20498;-71
2021/12/25 12:09:11;;;;;;;3.78;1.10;;;0.30;93.40;;;;;;4965507;28;20061;-71
2021/12/25 12:11:40;;;;;;;1.48;0.85;;;0.40;92.30;;;;;;4965624;28;20066;-71
2021/12/25 12:14:15;;;;;;;2.67;1.23;;;0.50;93.00;;;;;;4988389;28;20112;-71
2021/12/25 12:16:50;;;;;;;1.48;0.85;;;0.60;93.70;;;;;;4971467;28;20085;-72
2021/12/25 12:19:38;;;;;;;1.75;0.80;;;0.70;93.10;;;;;;4985613;28;20053;-72
2021/12/25 12:22:06;;;;;;;1.80;0.85;;;0.90;91.90;;;;;;4968647;28;20070;-72
2021/12/25 12:24:44;;;;;;;3.92;1.10;;;1.10;90.90;;;;;;4970587;28;20054;-72
2021/12/25 12:27:10;;;;;;;3.03;1.00;;;1.30;91.10;;;;;;4970277;28;20122;-71
2021/12/25 12:29:39;;;;;;;5.25;2.17;;;1.50;91.20;;;;;;4969619;28;20125;-72
2021/12/25 12:32:43;;;;;;;1.85;0.93;;;1.70;91.90;;;;;;4983900;28;20125;-72
2021/12/25 12:35:28;;;;;;;1.60;0.75;;;1.80;90.70;;;;;;4969593;28;20136;-72
2021/12/25 12:37:54;;;;;;;3.50;1.50;;;2.10;91.00;;;;;;4966392;28;20069;-72
2021/12/25 12:40:26;;;;;;;5.05;1.10;;;2.30;90.20;;;;;;4985112;28;20104;-72
2021/12/25 12:42:59;;;;;;;1.73;1.02;;;2.40;87.30;;;;;;4985755;28;20049;-72
2021/12/25 12:45:35;;;;;;;1.58;1.00;;;2.50;88.10;;;;;;4983935;28;20053;-73
2021/12/25 12:48:15;;;;;;;3.97;1.00;;;2.60;88.80;;;;;;4965387;28;20046;-72
2021/12/25 12:50:48;;;;;;;2.08;1.02;;;2.60;87.10;;;;;;4970977;28;20042;-72
2021/12/25 12:53:14;;;;;;;2.38;1.08;;;2.60;84.80;;;;;;4984889;28;20410;-72
2021/12/25 12:55:43;;;;;;;1.92;0.90;;;2.60;82.60;;;;;;4967860;28;20050;-72
2021/12/25 12:58:25;;;;;;;1.15;0.85;;;2.40;79.90;;;;;;4983338;28;20050;-72
2021/12/25 13:00:55;;;;;;;2.30;1.00;;;2.40;81.40;;;;;;4966669;28;20101;-72
2021/12/25 13:03:23;;;;;;;2.17;0.80;;;2.60;83.00;;;;;;4967006;28;20048;-72
2021/12/25 13:05:54;;;;;;;2.70;0.90;;;2.70;81.90;;;;;;4970658;28;20042;-72
2021/12/25 13:08:26;;;;;;;3.22;1.10;;;2.70;80.10;;;;;;4971896;28;20042;-72
2021/12/25 13:10:53;;;;;;;4.70;1.25;;;2.90;79.60;;;;;;4966615;28;20137;-72
2021/12/25 13:13:24;;;;;;;3.03;1.00;;;3.00;79.00;;;;;;4984554;28;20046;-72
2021/12/25 13:15:57;;;;;;;4.07;0.90;;;3.10;75.70;;;;;;4969222;28;20073;-71
2021/12/25 13:18:29;;;;;;;3.55;0.95;;;3.30;77.30;;;;;;4967449;28;20076;-71
2021/12/25 13:20:55;;;;;;;2.67;0.90;;;3.80;75.60;;;;;;4985104;28;20063;-71
2021/12/25 13:23:33;;;;;;;3.13;1.13;;;4.40;73.60;;;;;;4937765;28;20042;-72
2021/12/25 13:26:08;;;;;;;4.88;1.00;;;5.00;69.20;;;;;;4986072;28;20172;-72
2021/12/25 13:28:37;;;;;;;3.42;1.00;;;5.60;66.40;;;;;;4983520;28;20109;-73
2021/12/25 13:31:10;;;;;;;3.47;1.20;;;5.80;64.20;;;;;;4985531;28;20189;-72
2021/12/25 13:33:53;;;;;;;2.85;1.00;;;6.00;63.80;;;;;;4971337;28;20081;-72
2021/12/25 13:36:26;;;;;;;1.58;0.95;;;5.80;63.10;;;;;;4984521;28;20168;-72
2021/12/25 13:38:56;;;;;;;4.30;1.10;;;5.80;63.80;;;;;;4964846;28;20141;-71
2021/12/25 13:41:28;;;;;;;2.92;0.90;;;6.10;61.70;;;;;;4966908;28;20062;-73
2021/12/25 13:44:12;;;;;;;1.70;1.20;;;6.40;60.80;;;;;;4967352;28;20084;-72
2021/12/25 13:46:55;;;;;;;2.45;1.00;;;6.30;60.20;;;;;;4969908;28;20042;-73
2021/12/25 13:49:34;;;;;;;2.35;0.98;;;5.90;58.60;;;;;;4954843;28;20461;-72
2021/12/25 13:52:08;;;;;;;4.20;1.15;;;5.50;59.20;;;;;;4952009;28;20149;-72
2021/12/25 13:54:36;;;;;;;1.92;1.00;;;5.30;60.70;;;;;;4985340;28;20046;-72
2021/12/25 13:57:02;;;;;;;1.63;0.98;;;4.90;60.30;;;;;;4986794;28;20442;-72
2021/12/25 13:59:28;;;;;;;3.30;1.00;;;4.60;60.70;;;;;;4985964;28;20290;-73
2021/12/25 14:02:15;;;;;;;2.10;0.90;;;4.40;61.40;;;;;;4966649;28;20053;-72
2021/12/25 14:04:43;;;;;;;2.55;1.02;;;4.10;62.00;;;;;;4966452;28;20045;-72
2021/12/25 14:07:11;;;;;;;4.50;1.25;;;3.70;63.10;;;;;;4983444;28;20038;-72
2021/12/25 14:09:36;;;;;;;3.63;1.02;;;3.50;64.40;;;;;;4985060;28;20378;-71
2021/12/25 14:12:03;;;;;;;2.50;0.80;;;3.20;65.90;;;;;;4967233;28;20046;-71
2021/12/25 14:14:31;;;;;;;3.55;1.00;;;2.80;67.00;;;;;;4967194;28;20053;-71